sensor_id;sensor_type;location;lat;lon;timestamp;P1;durP1;ratioP1;P2;durP2;ratioP2
28028;SDS011;15345;59.364;18.016;2023-07-31T00:00:48;7.00;;;6.40;;
28028;SDS011;15345;59.364;18.016;2023-07-31T00:02:07;5.60;;;5.30;;
28028;SDS011;15345;59.364;18.016;2023-07-31T00:03:26;6.28;;;5.88;;
28028;SDS011;15345;59.364;18.016;2023-07-31T00:04:45;6.70;;;5.82;;
28028;SDS011;15345;59.364;18.016;2023-07-31T00:06:05;5.80;;;5.40;;
28028;SDS011;15345;59.364;18.016;2023-07-31T00:07:23;5.03;;;4.68;;
28028;SDS011;15345;59.364;18.016;2023-07-31T00:08:42;5.40;;;5.00;;
28028;SDS011;15345;59.364;18.016;2023-07-31T00:10:01;5.20;;;4.80;;
28028;SDS011;15345;59.364;18.016;2023-07-31T00:11:21;5.88;;;5.38;;
28028;SDS011;15345;59.364;18.016;2023-07-31T00:12:41;5.75;;;5.28;;
28028;SDS011;15345;59.364;18.016;2023-07-31T00:14:00;6.30;;;5.90;;
28028;SDS011;15345;59.364;18.016;2023-07-31T00:15:19;5.78;;;5.28;;
28028;SDS011;15345;59.364;18.016;2023-07-31T00:16:39;6.15;;;5.70;;
28028;SDS011;15345;59.364;18.016;2023-07-31T00:17:58;6.68;;;6.25;;
28028;SDS011;15345;59.364;18.016;2023-07-31T00:19:17;5.93;;;5.53;;
28028;SDS011;15345;59.364;18.016;2023-07-31T00:20:36;5.70;;;5.30;;
28028;SDS011;15345;59.364;18.016;2023-07-31T00:21:55;5.53;;;5.22;;
28028;SDS011;15345;59.364;18.016;2023-07-31T00:23:14;6.35;;;5.95;;
28028;SDS011;15345;59.364;18.016;2023-07-31T00:24:33;5.65;;;5.35;;
28028;SDS011;15345;59.364;18.016;2023-07-31T00:25:55;6.03;;;5.53;;
28028;SDS011;15345;59.364;18.016;2023-07-31T00:27:14;4.90;;;4.60;;
28028;SDS011;15345;59.364;18.016;2023-07-31T00:28:33;5.15;;;4.85;;
28028;SDS011;15345;59.364;18.016;2023-07-31T00:29:51;5.57;;;5.25;;
28028;SDS011;15345;59.364;18.016;2023-07-31T00:31:10;5.50;;;5.20;;
28028;SDS011;15345;59.364;18.016;2023-07-31T00:32:29;6.00;;;5.50;;
28028;SDS011;15345;59.364;18.016;2023-07-31T00:33:48;6.28;;;5.80;;
28028;SDS011;15345;59.364;18.016;2023-07-31T00:35:07;6.22;;;5.82;;
28028;SDS011;15345;59.364;18.016;2023-07-31T00:36:26;7.28;;;6.68;;
28028;SDS011;15345;59.364;18.016;2023-07-31T00:37:45;7.00;;;6.30;;
28028;SDS011;15345;59.364;18.016;2023-07-31T00:39:04;5.18;;;4.78;;
28028;SDS011;15345;59.364;18.016;2023-07-31T00:40:23;5.78;;;5.05;;
28028;SDS011;15345;59.364;18.016;2023-07-31T00:41:42;4.95;;;4.60;;
28028;SDS011;15345;59.364;18.016;2023-07-31T00:43:01;5.97;;;5.40;;
28028;SDS011;15345;59.364;18.016;2023-07-31T00:44:20;5.40;;;5.00;;
28028;SDS011;15345;59.364;18.016;2023-07-31T00:45:39;4.88;;;4.57;;
28028;SDS011;15345;59.364;18.016;2023-07-31T00:46:58;5.28;;;4.95;;
28028;SDS011;15345;59.364;18.016;2023-07-31T00:48:18;5.95;;;5.55;;
28028;SDS011;15345;59.364;18.016;2023-07-31T00:49:37;7.10;;;6.53;;
28028;SDS011;15345;59.364;18.016;2023-07-31T00:50:55;5.95;;;5.45;;
28028;SDS011;15345;59.364;18.016;2023-07-31T00:52:14;5.82;;;5.53;;
28028;SDS011;15345;59.364;18.016;2023-07-31T00:53:33;6.07;;;5.63;;
28028;SDS011;15345;59.364;18.016;2023-07-31T00:54:53;7.15;;;6.65;;
28028;SDS011;15345;59.364;18.016;2023-07-31T00:56:12;7.93;;;5.90;;
28028;SDS011;15345;59.364;18.016;2023-07-31T00:57:32;6.95;;;6.45;;
28028;SDS011;15345;59.364;18.016;2023-07-31T00:58:53;6.57;;;6.07;;
28028;SDS011;15345;59.364;18.016;2023-07-31T01:00:12;7.60;;;7.03;;
28028;SDS011;15345;59.364;18.016;2023-07-31T01:01:31;6.75;;;6.35;;
28028;SDS011;15345;59.364;18.016;2023-07-31T01:02:50;8.90;;;6.80;;
28028;SDS011;15345;59.364;18.016;2023-07-31T01:04:10;7.20;;;6.57;;
28028;SDS011;15345;59.364;18.016;2023-07-31T01:05:42;8.05;;;7.25;;
28028;SDS011;15345;59.364;18.016;2023-07-31T01:07:18;7.78;;;6.82;;
28028;SDS011;15345;59.364;18.016;2023-07-31T01:10:02;7.10;;;6.50;;
28028;SDS011;15345;59.364;18.016;2023-07-31T01:11:39;6.80;;;6.22;;
28028;SDS011;15345;59.364;18.016;2023-07-31T01:13:01;7.68;;;7.18;;
28028;SDS011;15345;59.364;18.016;2023-07-31T01:14:21;7.10;;;6.60;;
28028;SDS011;15345;59.364;18.016;2023-07-31T01:15:40;5.55;;;5.15;;
28028;SDS011;15345;59.364;18.016;2023-07-31T01:16:59;6.57;;;6.00;;
28028;SDS011;15345;59.364;18.016;2023-07-31T01:18:18;5.07;;;4.68;;
28028;SDS011;15345;59.364;18.016;2023-07-31T01:19:36;4.55;;;4.25;;
28028;SDS011;15345;59.364;18.016;2023-07-31T01:20:57;5.20;;;4.80;;
28028;SDS011;15345;59.364;18.016;2023-07-31T01:27:24;6.40;;;5.90;;
28028;SDS011;15345;59.364;18.016;2023-07-31T01:28:46;7.72;;;5.47;;
28028;SDS011;15345;59.364;18.016;2023-07-31T01:30:08;6.90;;;5.78;;
28028;SDS011;15345;59.364;18.016;2023-07-31T01:31:32;5.40;;;5.10;;
28028;SDS011;15345;59.364;18.016;2023-07-31T01:32:51;5.40;;;5.00;;
28028;SDS011;15345;59.364;18.016;2023-07-31T01:34:11;5.40;;;4.95;;
28028;SDS011;15345;59.364;18.016;2023-07-31T01:35:31;5.72;;;5.32;;
28028;SDS011;15345;59.364;18.016;2023-07-31T01:36:50;6.97;;;6.47;;
28028;SDS011;15345;59.364;18.016;2023-07-31T01:38:09;6.72;;;6.30;;
28028;SDS011;15345;59.364;18.016;2023-07-31T01:39:28;5.93;;;5.53;;
28028;SDS011;15345;59.364;18.016;2023-07-31T01:40:50;7.13;;;6.50;;
28028;SDS011;15345;59.364;18.016;2023-07-31T01:42:10;6.28;;;5.78;;
28028;SDS011;15345;59.364;18.016;2023-07-31T01:43:29;7.25;;;6.65;;
28028;SDS011;15345;59.364;18.016;2023-07-31T01:44:48;6.25;;;5.85;;
28028;SDS011;15345;59.364;18.016;2023-07-31T01:46:07;6.53;;;6.03;;
28028;SDS011;15345;59.364;18.016;2023-07-31T01:47:29;6.78;;;6.28;;
28028;SDS011;15345;59.364;18.016;2023-07-31T01:48:49;6.22;;;5.80;;
28028;SDS011;15345;59.364;18.016;2023-07-31T01:50:08;6.10;;;5.72;;
28028;SDS011;15345;59.364;18.016;2023-07-31T01:51:27;5.70;;;5.30;;
28028;SDS011;15345;59.364;18.016;2023-07-31T01:52:46;6.25;;;5.85;;
28028;SDS011;15345;59.364;18.016;2023-07-31T01:54:05;6.75;;;6.32;;
28028;SDS011;15345;59.364;18.016;2023-07-31T01:55:25;6.18;;;5.70;;
28028;SDS011;15345;59.364;18.016;2023-07-31T01:56:44;6.82;;;6.28;;
28028;SDS011;15345;59.364;18.016;2023-07-31T01:58:03;6.95;;;6.30;;
28028;SDS011;15345;59.364;18.016;2023-07-31T01:59:22;6.65;;;6.05;;
28028;SDS011;15345;59.364;18.016;2023-07-31T02:00:41;6.70;;;6.30;;
28028;SDS011;15345;59.364;18.016;2023-07-31T02:02:00;7.05;;;6.55;;
28028;SDS011;15345;59.364;18.016;2023-07-31T02:03:19;8.02;;;6.55;;
28028;SDS011;15345;59.364;18.016;2023-07-31T02:04:38;6.13;;;5.68;;
28028;SDS011;15345;59.364;18.016;2023-07-31T02:05:58;7.28;;;6.68;;
28028;SDS011;15345;59.364;18.016;2023-07-31T02:07:17;7.15;;;6.55;;
28028;SDS011;15345;59.364;18.016;2023-07-31T02:08:36;7.07;;;6.68;;
28028;SDS011;15345;59.364;18.016;2023-07-31T02:09:55;6.63;;;6.00;;
28028;SDS011;15345;59.364;18.016;2023-07-31T02:11:14;7.32;;;6.72;;
28028;SDS011;15345;59.364;18.016;2023-07-31T02:12:33;6.78;;;6.38;;
28028;SDS011;15345;59.364;18.016;2023-07-31T02:13:52;6.90;;;6.40;;
28028;SDS011;15345;59.364;18.016;2023-07-31T02:15:11;6.90;;;6.35;;
28028;SDS011;15345;59.364;18.016;2023-07-31T02:16:34;7.35;;;6.85;;
28028;SDS011;15345;59.364;18.016;2023-07-31T02:17:52;7.25;;;6.60;;
28028;SDS011;15345;59.364;18.016;2023-07-31T02:19:11;6.50;;;6.07;;
28028;SDS011;15345;59.364;18.016;2023-07-31T02:20:33;6.82;;;6.40;;
28028;SDS011;15345;59.364;18.016;2023-07-31T02:21:52;7.22;;;6.65;;
28028;SDS011;15345;59.364;18.016;2023-07-31T02:23:11;8.48;;;6.90;;
28028;SDS011;15345;59.364;18.016;2023-07-31T02:24:30;6.57;;;6.07;;
28028;SDS011;15345;59.364;18.016;2023-07-31T02:25:51;6.30;;;5.90;;
28028;SDS011;15345;59.364;18.016;2023-07-31T02:27:10;6.85;;;6.18;;
28028;SDS011;15345;59.364;18.016;2023-07-31T02:28:29;6.68;;;6.18;;
28028;SDS011;15345;59.364;18.016;2023-07-31T02:29:48;7.10;;;6.60;;
28028;SDS011;15345;59.364;18.016;2023-07-31T02:31:07;7.18;;;6.57;;
28028;SDS011;15345;59.364;18.016;2023-07-31T02:32:26;7.78;;;7.18;;
28028;SDS011;15345;59.364;18.016;2023-07-31T02:33:45;6.93;;;6.53;;
28028;SDS011;15345;59.364;18.016;2023-07-31T02:35:05;7.50;;;6.90;;
28028;SDS011;15345;59.364;18.016;2023-07-31T02:36:24;8.00;;;7.28;;
28028;SDS011;15345;59.364;18.016;2023-07-31T02:37:43;7.25;;;6.75;;
28028;SDS011;15345;59.364;18.016;2023-07-31T02:39:02;7.38;;;6.88;;
28028;SDS011;15345;59.364;18.016;2023-07-31T02:40:21;7.45;;;6.82;;
28028;SDS011;15345;59.364;18.016;2023-07-31T02:41:42;7.93;;;7.43;;
28028;SDS011;15345;59.364;18.016;2023-07-31T02:43:01;7.50;;;7.00;;
28028;SDS011;15345;59.364;18.016;2023-07-31T02:44:20;6.35;;;5.95;;
28028;SDS011;15345;59.364;18.016;2023-07-31T02:45:40;6.95;;;6.35;;
28028;SDS011;15345;59.364;18.016;2023-07-31T02:46:58;6.57;;;5.97;;
28028;SDS011;15345;59.364;18.016;2023-07-31T02:48:17;6.70;;;6.13;;
28028;SDS011;15345;59.364;18.016;2023-07-31T02:49:36;7.57;;;7.05;;
28028;SDS011;15345;59.364;18.016;2023-07-31T02:50:55;7.47;;;6.85;;
28028;SDS011;15345;59.364;18.016;2023-07-31T02:52:14;6.45;;;6.03;;
28028;SDS011;15345;59.364;18.016;2023-07-31T02:53:33;6.28;;;5.78;;
28028;SDS011;15345;59.364;18.016;2023-07-31T02:54:52;7.20;;;6.50;;
28028;SDS011;15345;59.364;18.016;2023-07-31T02:56:11;6.53;;;5.90;;
28028;SDS011;15345;59.364;18.016;2023-07-31T02:57:30;6.07;;;5.57;;
28028;SDS011;15345;59.364;18.016;2023-07-31T02:58:49;5.70;;;5.40;;
28028;SDS011;15345;59.364;18.016;2023-07-31T03:00:07;6.10;;;5.60;;
28028;SDS011;15345;59.364;18.016;2023-07-31T03:01:28;6.47;;;5.97;;
28028;SDS011;15345;59.364;18.016;2023-07-31T03:02:47;7.03;;;5.82;;
28028;SDS011;15345;59.364;18.016;2023-07-31T03:04:06;6.82;;;6.32;;
28028;SDS011;15345;59.364;18.016;2023-07-31T03:05:25;6.22;;;5.72;;
28028;SDS011;15345;59.364;18.016;2023-07-31T03:06:44;5.50;;;5.20;;
28028;SDS011;15345;59.364;18.016;2023-07-31T03:08:03;6.43;;;5.93;;
28028;SDS011;15345;59.364;18.016;2023-07-31T03:09:22;4.90;;;4.50;;
28028;SDS011;15345;59.364;18.016;2023-07-31T03:10:41;4.95;;;4.65;;
28028;SDS011;15345;59.364;18.016;2023-07-31T03:12:00;4.97;;;4.60;;
28028;SDS011;15345;59.364;18.016;2023-07-31T03:13:19;5.70;;;5.30;;
28028;SDS011;15345;59.364;18.016;2023-07-31T03:14:38;6.32;;;5.93;;
28028;SDS011;15345;59.364;18.016;2023-07-31T03:15:58;5.93;;;5.63;;
28028;SDS011;15345;59.364;18.016;2023-07-31T03:17:16;6.55;;;6.05;;
28028;SDS011;15345;59.364;18.016;2023-07-31T03:18:35;6.25;;;5.85;;
28028;SDS011;15345;59.364;18.016;2023-07-31T03:19:54;6.50;;;6.00;;
28028;SDS011;15345;59.364;18.016;2023-07-31T03:21:14;6.60;;;6.10;;
28028;SDS011;15345;59.364;18.016;2023-07-31T03:22:33;6.80;;;6.30;;
28028;SDS011;15345;59.364;18.016;2023-07-31T03:23:53;6.80;;;6.30;;
28028;SDS011;15345;59.364;18.016;2023-07-31T03:25:12;7.00;;;6.50;;
28028;SDS011;15345;59.364;18.016;2023-07-31T03:26:33;8.60;;;7.78;;
28028;SDS011;15345;59.364;18.016;2023-07-31T03:27:52;7.78;;;7.18;;
28028;SDS011;15345;59.364;18.016;2023-07-31T03:29:11;6.50;;;6.03;;
28028;SDS011;15345;59.364;18.016;2023-07-31T03:30:30;8.23;;;7.13;;
28028;SDS011;15345;59.364;18.016;2023-07-31T03:31:49;9.70;;;7.38;;
28028;SDS011;15345;59.364;18.016;2023-07-31T03:33:08;7.40;;;6.90;;
28028;SDS011;15345;59.364;18.016;2023-07-31T03:34:27;8.70;;;7.75;;
28028;SDS011;15345;59.364;18.016;2023-07-31T03:35:46;8.65;;;7.93;;
28028;SDS011;15345;59.364;18.016;2023-07-31T03:37:05;8.15;;;7.28;;
28028;SDS011;15345;59.364;18.016;2023-07-31T03:38:23;8.05;;;7.22;;
28028;SDS011;15345;59.364;18.016;2023-07-31T03:39:42;8.55;;;7.90;;
28028;SDS011;15345;59.364;18.016;2023-07-31T03:41:01;9.00;;;8.20;;
28028;SDS011;15345;59.364;18.016;2023-07-31T03:42:21;7.45;;;6.95;;
28028;SDS011;15345;59.364;18.016;2023-07-31T03:43:40;7.55;;;6.95;;
28028;SDS011;15345;59.364;18.016;2023-07-31T03:44:59;9.43;;;8.57;;
28028;SDS011;15345;59.364;18.016;2023-07-31T03:46:18;9.30;;;8.43;;
28028;SDS011;15345;59.364;18.016;2023-07-31T03:47:37;9.23;;;8.52;;
28028;SDS011;15345;59.364;18.016;2023-07-31T03:48:56;8.70;;;8.05;;
28028;SDS011;15345;59.364;18.016;2023-07-31T03:50:15;8.50;;;7.80;;
28028;SDS011;15345;59.364;18.016;2023-07-31T03:51:34;8.40;;;7.50;;
28028;SDS011;15345;59.364;18.016;2023-07-31T03:52:53;6.72;;;6.22;;
28028;SDS011;15345;59.364;18.016;2023-07-31T03:54:12;9.38;;;8.63;;
28028;SDS011;15345;59.364;18.016;2023-07-31T03:55:31;8.45;;;7.85;;
28028;SDS011;15345;59.364;18.016;2023-07-31T03:56:50;9.60;;;8.57;;
28028;SDS011;15345;59.364;18.016;2023-07-31T03:58:09;9.88;;;8.95;;
28028;SDS011;15345;59.364;18.016;2023-07-31T03:59:28;10.73;;;8.73;;
28028;SDS011;15345;59.364;18.016;2023-07-31T04:00:47;8.88;;;8.07;;
28028;SDS011;15345;59.364;18.016;2023-07-31T04:02:06;8.35;;;7.65;;
28028;SDS011;15345;59.364;18.016;2023-07-31T04:03:25;11.15;;;8.80;;
28028;SDS011;15345;59.364;18.016;2023-07-31T04:04:44;9.65;;;8.88;;
28028;SDS011;15345;59.364;18.016;2023-07-31T04:06:02;8.25;;;7.65;;
28028;SDS011;15345;59.364;18.016;2023-07-31T04:07:21;9.82;;;8.95;;
28028;SDS011;15345;59.364;18.016;2023-07-31T04:08:40;10.00;;;9.05;;
28028;SDS011;15345;59.364;18.016;2023-07-31T04:09:59;9.77;;;8.85;;
28028;SDS011;15345;59.364;18.016;2023-07-31T04:11:18;9.32;;;8.52;;
28028;SDS011;15345;59.364;18.016;2023-07-31T04:12:37;9.40;;;8.25;;
28028;SDS011;15345;59.364;18.016;2023-07-31T04:13:56;8.35;;;7.75;;
28028;SDS011;15345;59.364;18.016;2023-07-31T04:15:15;9.80;;;9.00;;
28028;SDS011;15345;59.364;18.016;2023-07-31T04:16:34;9.50;;;8.52;;
28028;SDS011;15345;59.364;18.016;2023-07-31T04:17:53;10.65;;;9.65;;
28028;SDS011;15345;59.364;18.016;2023-07-31T04:19:12;10.10;;;9.07;;
28028;SDS011;15345;59.364;18.016;2023-07-31T04:20:35;10.52;;;9.73;;
28028;SDS011;15345;59.364;18.016;2023-07-31T04:21:54;12.80;;;9.55;;
28028;SDS011;15345;59.364;18.016;2023-07-31T04:23:13;10.18;;;9.18;;
28028;SDS011;15345;59.364;18.016;2023-07-31T04:24:32;9.13;;;8.10;;
28028;SDS011;15345;59.364;18.016;2023-07-31T04:25:51;9.80;;;8.95;;
28028;SDS011;15345;59.364;18.016;2023-07-31T04:27:09;9.95;;;9.15;;
28028;SDS011;15345;59.364;18.016;2023-07-31T04:28:28;10.07;;;9.05;;
28028;SDS011;15345;59.364;18.016;2023-07-31T04:29:50;9.23;;;8.25;;
28028;SDS011;15345;59.364;18.016;2023-07-31T04:31:10;8.63;;;7.43;;
28028;SDS011;15345;59.364;18.016;2023-07-31T04:32:29;9.48;;;8.50;;
28028;SDS011;15345;59.364;18.016;2023-07-31T04:33:48;9.73;;;8.82;;
28028;SDS011;15345;59.364;18.016;2023-07-31T04:35:07;9.10;;;8.43;;
28028;SDS011;15345;59.364;18.016;2023-07-31T04:36:26;6.78;;;6.28;;
28028;SDS011;15345;59.364;18.016;2023-07-31T04:37:45;8.75;;;7.43;;
28028;SDS011;15345;59.364;18.016;2023-07-31T04:39:07;9.00;;;8.07;;
28028;SDS011;15345;59.364;18.016;2023-07-31T04:40:26;10.27;;;8.75;;
28028;SDS011;15345;59.364;18.016;2023-07-31T04:41:45;13.15;;;8.68;;
28028;SDS011;15345;59.364;18.016;2023-07-31T04:43:04;10.52;;;9.10;;
28028;SDS011;15345;59.364;18.016;2023-07-31T04:44:23;9.90;;;8.20;;
28028;SDS011;15345;59.364;18.016;2023-07-31T04:45:42;8.05;;;7.35;;
28028;SDS011;15345;59.364;18.016;2023-07-31T04:47:01;7.07;;;6.50;;
28028;SDS011;15345;59.364;18.016;2023-07-31T04:48:21;8.27;;;7.63;;
28028;SDS011;15345;59.364;18.016;2023-07-31T04:49:40;9.13;;;7.80;;
28028;SDS011;15345;59.364;18.016;2023-07-31T04:50:59;9.27;;;8.45;;
28028;SDS011;15345;59.364;18.016;2023-07-31T04:52:18;9.07;;;8.15;;
28028;SDS011;15345;59.364;18.016;2023-07-31T04:53:37;8.75;;;8.13;;
28028;SDS011;15345;59.364;18.016;2023-07-31T04:54:56;9.30;;;8.50;;
28028;SDS011;15345;59.364;18.016;2023-07-31T04:56:15;10.65;;;8.18;;
28028;SDS011;15345;59.364;18.016;2023-07-31T04:57:34;9.07;;;8.07;;
28028;SDS011;15345;59.364;18.016;2023-07-31T04:58:53;7.70;;;7.20;;
28028;SDS011;15345;59.364;18.016;2023-07-31T05:00:12;10.07;;;9.27;;
28028;SDS011;15345;59.364;18.016;2023-07-31T05:01:31;11.45;;;9.20;;
28028;SDS011;15345;59.364;18.016;2023-07-31T05:02:50;9.15;;;8.32;;
28028;SDS011;15345;59.364;18.016;2023-07-31T05:04:09;9.35;;;7.75;;
28028;SDS011;15345;59.364;18.016;2023-07-31T05:05:29;10.02;;;7.95;;
28028;SDS011;15345;59.364;18.016;2023-07-31T05:06:48;8.00;;;7.40;;
28028;SDS011;15345;59.364;18.016;2023-07-31T05:08:06;8.05;;;7.40;;
28028;SDS011;15345;59.364;18.016;2023-07-31T05:09:25;8.57;;;7.88;;
28028;SDS011;15345;59.364;18.016;2023-07-31T05:10:44;8.02;;;7.45;;
28028;SDS011;15345;59.364;18.016;2023-07-31T05:12:04;7.85;;;6.45;;
28028;SDS011;15345;59.364;18.016;2023-07-31T05:13:23;7.15;;;6.65;;
28028;SDS011;15345;59.364;18.016;2023-07-31T05:14:42;9.43;;;8.18;;
28028;SDS011;15345;59.364;18.016;2023-07-31T05:16:01;5.72;;;5.35;;
28028;SDS011;15345;59.364;18.016;2023-07-31T05:17:19;9.15;;;8.38;;
28028;SDS011;15345;59.364;18.016;2023-07-31T05:18:38;11.30;;;9.10;;
28028;SDS011;15345;59.364;18.016;2023-07-31T05:19:57;9.63;;;8.77;;
28028;SDS011;15345;59.364;18.016;2023-07-31T05:21:16;10.30;;;9.50;;
28028;SDS011;15345;59.364;18.016;2023-07-31T05:22:35;10.07;;;9.38;;
28028;SDS011;15345;59.364;18.016;2023-07-31T05:23:54;11.52;;;10.18;;
28028;SDS011;15345;59.364;18.016;2023-07-31T05:25:13;11.00;;;10.07;;
28028;SDS011;15345;59.364;18.016;2023-07-31T05:26:32;14.27;;;10.18;;
28028;SDS011;15345;59.364;18.016;2023-07-31T05:27:52;10.00;;;8.98;;
28028;SDS011;15345;59.364;18.016;2023-07-31T05:29:11;10.25;;;9.45;;
28028;SDS011;15345;59.364;18.016;2023-07-31T05:30:30;8.30;;;7.35;;
28028;SDS011;15345;59.364;18.016;2023-07-31T05:31:49;9.10;;;8.40;;
28028;SDS011;15345;59.364;18.016;2023-07-31T05:33:09;7.65;;;7.07;;
28028;SDS011;15345;59.364;18.016;2023-07-31T05:34:28;9.35;;;8.65;;
28028;SDS011;15345;59.364;18.016;2023-07-31T05:35:47;9.13;;;8.43;;
28028;SDS011;15345;59.364;18.016;2023-07-31T05:37:07;10.25;;;9.38;;
28028;SDS011;15345;59.364;18.016;2023-07-31T05:38:26;10.90;;;10.07;;
28028;SDS011;15345;59.364;18.016;2023-07-31T05:39:45;8.30;;;7.70;;
28028;SDS011;15345;59.364;18.016;2023-07-31T05:41:04;9.88;;;9.02;;
28028;SDS011;15345;59.364;18.016;2023-07-31T05:42:22;8.18;;;7.57;;
28028;SDS011;15345;59.364;18.016;2023-07-31T05:43:41;8.63;;;8.00;;
28028;SDS011;15345;59.364;18.016;2023-07-31T05:45:01;9.48;;;8.80;;
28028;SDS011;15345;59.364;18.016;2023-07-31T05:46:21;10.07;;;9.07;;
28028;SDS011;15345;59.364;18.016;2023-07-31T05:47:40;9.75;;;9.02;;
28028;SDS011;15345;59.364;18.016;2023-07-31T05:48:59;14.43;;;10.55;;
28028;SDS011;15345;59.364;18.016;2023-07-31T05:50:19;10.43;;;9.38;;
28028;SDS011;15345;59.364;18.016;2023-07-31T05:51:38;12.10;;;11.07;;
28028;SDS011;15345;59.364;18.016;2023-07-31T05:52:57;11.48;;;10.57;;
28028;SDS011;15345;59.364;18.016;2023-07-31T05:54:16;11.10;;;10.30;;
28028;SDS011;15345;59.364;18.016;2023-07-31T05:55:35;12.05;;;10.82;;
28028;SDS011;15345;59.364;18.016;2023-07-31T05:56:54;12.70;;;10.73;;
28028;SDS011;15345;59.364;18.016;2023-07-31T05:58:13;12.45;;;11.25;;
28028;SDS011;15345;59.364;18.016;2023-07-31T05:59:32;9.70;;;8.77;;
28028;SDS011;15345;59.364;18.016;2023-07-31T06:00:51;9.27;;;8.60;;
28028;SDS011;15345;59.364;18.016;2023-07-31T06:02:10;10.95;;;9.80;;
28028;SDS011;15345;59.364;18.016;2023-07-31T06:03:29;11.25;;;10.25;;
28028;SDS011;15345;59.364;18.016;2023-07-31T06:04:48;11.48;;;10.57;;
28028;SDS011;15345;59.364;18.016;2023-07-31T06:06:07;11.35;;;10.25;;
28028;SDS011;15345;59.364;18.016;2023-07-31T06:07:27;10.85;;;9.88;;
28028;SDS011;15345;59.364;18.016;2023-07-31T06:08:46;10.63;;;9.60;;
28028;SDS011;15345;59.364;18.016;2023-07-31T06:10:05;11.65;;;10.45;;
28028;SDS011;15345;59.364;18.016;2023-07-31T06:11:24;10.20;;;9.05;;
28028;SDS011;15345;59.364;18.016;2023-07-31T06:12:44;8.00;;;7.40;;
28028;SDS011;15345;59.364;18.016;2023-07-31T06:14:03;9.70;;;8.77;;
28028;SDS011;15345;59.364;18.016;2023-07-31T06:15:22;9.60;;;8.82;;
28028;SDS011;15345;59.364;18.016;2023-07-31T06:16:40;11.80;;;10.82;;
28028;SDS011;15345;59.364;18.016;2023-07-31T06:17:59;9.65;;;8.68;;
28028;SDS011;15345;59.364;18.016;2023-07-31T06:19:20;8.45;;;7.75;;
28028;SDS011;15345;59.364;18.016;2023-07-31T06:20:39;10.10;;;9.27;;
28028;SDS011;15345;59.364;18.016;2023-07-31T06:21:59;9.90;;;9.00;;
28028;SDS011;15345;59.364;18.016;2023-07-31T06:23:18;10.43;;;9.50;;
28028;SDS011;15345;59.364;18.016;2023-07-31T06:24:38;10.48;;;9.75;;
28028;SDS011;15345;59.364;18.016;2023-07-31T06:25:58;10.93;;;10.13;;
28028;SDS011;15345;59.364;18.016;2023-07-31T06:27:17;11.77;;;10.77;;
28028;SDS011;15345;59.364;18.016;2023-07-31T06:28:36;12.13;;;11.00;;
28028;SDS011;15345;59.364;18.016;2023-07-31T06:29:55;10.20;;;9.40;;
28028;SDS011;15345;59.364;18.016;2023-07-31T06:31:13;8.80;;;8.10;;
28028;SDS011;15345;59.364;18.016;2023-07-31T06:32:32;8.23;;;7.72;;
28028;SDS011;15345;59.364;18.016;2023-07-31T06:33:51;8.75;;;8.05;;
28028;SDS011;15345;59.364;18.016;2023-07-31T06:35:11;7.45;;;7.00;;
28028;SDS011;15345;59.364;18.016;2023-07-31T06:36:29;6.95;;;6.30;;
28028;SDS011;15345;59.364;18.016;2023-07-31T06:37:48;7.68;;;6.97;;
28028;SDS011;15345;59.364;18.016;2023-07-31T06:39:08;7.38;;;6.47;;
28028;SDS011;15345;59.364;18.016;2023-07-31T06:40:27;6.40;;;5.88;;
28028;SDS011;15345;59.364;18.016;2023-07-31T06:41:47;7.50;;;6.80;;
28028;SDS011;15345;59.364;18.016;2023-07-31T06:43:06;5.68;;;5.28;;
28028;SDS011;15345;59.364;18.016;2023-07-31T06:44:27;5.82;;;5.43;;
28028;SDS011;15345;59.364;18.016;2023-07-31T06:45:45;6.38;;;5.97;;
28028;SDS011;15345;59.364;18.016;2023-07-31T06:47:06;6.50;;;5.80;;
28028;SDS011;15345;59.364;18.016;2023-07-31T06:48:28;6.07;;;5.68;;
28028;SDS011;15345;59.364;18.016;2023-07-31T06:49:47;8.43;;;5.82;;
28028;SDS011;15345;59.364;18.016;2023-07-31T06:51:07;6.38;;;5.43;;
28028;SDS011;15345;59.364;18.016;2023-07-31T06:52:25;5.90;;;5.38;;
28028;SDS011;15345;59.364;18.016;2023-07-31T06:53:44;8.27;;;5.82;;
28028;SDS011;15345;59.364;18.016;2023-07-31T06:55:25;7.95;;;5.90;;
28028;SDS011;15345;59.364;18.016;2023-07-31T06:56:43;6.18;;;5.10;;
28028;SDS011;15345;59.364;18.016;2023-07-31T06:58:02;5.15;;;4.75;;
28028;SDS011;15345;59.364;18.016;2023-07-31T06:59:21;5.93;;;4.60;;
28028;SDS011;15345;59.364;18.016;2023-07-31T07:00:41;7.63;;;4.63;;
28028;SDS011;15345;59.364;18.016;2023-07-31T07:02:00;5.30;;;4.80;;
28028;SDS011;15345;59.364;18.016;2023-07-31T07:03:19;4.50;;;4.10;;
28028;SDS011;15345;59.364;18.016;2023-07-31T07:04:39;4.50;;;3.65;;
28028;SDS011;15345;59.364;18.016;2023-07-31T07:05:58;3.13;;;2.80;;
28028;SDS011;15345;59.364;18.016;2023-07-31T07:07:17;2.85;;;2.60;;
28028;SDS011;15345;59.364;18.016;2023-07-31T07:08:36;3.78;;;2.67;;
28028;SDS011;15345;59.364;18.016;2023-07-31T07:09:55;4.07;;;2.75;;
28028;SDS011;15345;59.364;18.016;2023-07-31T07:11:14;6.75;;;2.35;;
28028;SDS011;15345;59.364;18.016;2023-07-31T07:12:33;3.58;;;2.60;;
28028;SDS011;15345;59.364;18.016;2023-07-31T07:13:58;3.58;;;2.78;;
28028;SDS011;15345;59.364;18.016;2023-07-31T07:15:16;2.60;;;2.40;;
28028;SDS011;15345;59.364;18.016;2023-07-31T07:16:35;4.57;;;2.65;;
28028;SDS011;15345;59.364;18.016;2023-07-31T07:17:54;9.55;;;3.20;;
28028;SDS011;15345;59.364;18.016;2023-07-31T07:19:13;3.97;;;2.55;;
28028;SDS011;15345;59.364;18.016;2023-07-31T07:20:32;3.70;;;2.70;;
28028;SDS011;15345;59.364;18.016;2023-07-31T07:21:51;4.75;;;2.90;;
28028;SDS011;15345;59.364;18.016;2023-07-31T07:23:10;3.33;;;2.90;;
28028;SDS011;15345;59.364;18.016;2023-07-31T07:24:34;4.72;;;2.80;;
28028;SDS011;15345;59.364;18.016;2023-07-31T07:25:53;5.05;;;3.22;;
28028;SDS011;15345;59.364;18.016;2023-07-31T07:27:11;5.78;;;3.05;;
28028;SDS011;15345;59.364;18.016;2023-07-31T07:28:30;5.90;;;3.10;;
28028;SDS011;15345;59.364;18.016;2023-07-31T07:29:50;6.47;;;3.10;;
28028;SDS011;15345;59.364;18.016;2023-07-31T07:31:12;4.50;;;2.88;;
28028;SDS011;15345;59.364;18.016;2023-07-31T07:32:33;5.57;;;3.25;;
28028;SDS011;15345;59.364;18.016;2023-07-31T07:33:52;3.70;;;3.10;;
28028;SDS011;15345;59.364;18.016;2023-07-31T07:35:12;5.35;;;2.70;;
28028;SDS011;15345;59.364;18.016;2023-07-31T07:36:37;9.00;;;2.78;;
28028;SDS011;15345;59.364;18.016;2023-07-31T07:38:00;4.13;;;2.92;;
28028;SDS011;15345;59.364;18.016;2023-07-31T07:39:19;5.00;;;2.85;;
28028;SDS011;15345;59.364;18.016;2023-07-31T07:40:39;3.50;;;2.90;;
28028;SDS011;15345;59.364;18.016;2023-07-31T07:41:58;3.17;;;2.90;;
28028;SDS011;15345;59.364;18.016;2023-07-31T07:43:17;4.65;;;2.85;;
28028;SDS011;15345;59.364;18.016;2023-07-31T07:44:36;4.15;;;3.47;;
28028;SDS011;15345;59.364;18.016;2023-07-31T07:45:55;5.05;;;4.03;;
28028;SDS011;15345;59.364;18.016;2023-07-31T07:47:15;5.57;;;3.33;;
28028;SDS011;15345;59.364;18.016;2023-07-31T07:48:39;6.07;;;3.55;;
28028;SDS011;15345;59.364;18.016;2023-07-31T07:49:58;3.85;;;3.55;;
28028;SDS011;15345;59.364;18.016;2023-07-31T07:51:17;6.85;;;3.60;;
28028;SDS011;15345;59.364;18.016;2023-07-31T07:52:36;7.07;;;3.97;;
28028;SDS011;15345;59.364;18.016;2023-07-31T07:53:55;4.55;;;3.28;;
28028;SDS011;15345;59.364;18.016;2023-07-31T07:55:14;6.28;;;4.25;;
28028;SDS011;15345;59.364;18.016;2023-07-31T07:56:33;3.60;;;3.30;;